createdAt,value
2022-10-04T05:13:18.340Z,0
2022-10-04T05:16:17.958Z,0
2022-10-04T05:19:17.959Z,0
2022-10-04T05:22:17.947Z,0
2022-10-04T05:25:17.982Z,0
2022-10-04T05:28:17.991Z,0
2022-10-04T05:31:17.963Z,0
2022-10-04T05:34:17.963Z,0
2022-10-04T05:37:17.989Z,0
2022-10-04T05:40:17.999Z,0
2022-10-04T05:43:17.980Z,0
2022-10-04T05:46:17.991Z,0
2022-10-04T05:49:17.993Z,0
2022-10-04T05:52:18.013Z,0
2022-10-04T05:55:18.035Z,0
2022-10-04T05:58:18.012Z,0
2022-10-04T06:01:18.019Z,0
2022-10-04T06:04:18.022Z,0
2022-10-04T06:07:18.026Z,0
2022-10-04T06:10:18.028Z,0
2022-10-04T06:13:18.049Z,0
2022-10-04T06:16:18.034Z,0
2022-10-04T06:19:18.043Z,0
2022-10-04T06:22:18.056Z,0
2022-10-04T06:25:18.067Z,0
2022-10-04T06:28:18.100Z,0
2022-10-04T06:31:18.083Z,0
2022-10-04T06:34:18.079Z,0
2022-10-04T06:37:18.081Z,0
2022-10-04T06:40:18.085Z,0
2022-10-04T06:46:18.099Z,0
2022-10-04T06:49:18.127Z,0
2022-10-04T06:52:18.122Z,0
2022-10-04T06:55:18.125Z,0
2022-10-04T06:58:18.155Z,1
2022-10-04T07:01:18.220Z,0
2022-10-04T07:04:18.140Z,0
2022-10-04T07:07:18.163Z,0
2022-10-04T07:10:18.152Z,0
2022-10-04T07:13:18.210Z,0
2022-10-04T07:16:18.163Z,0
2022-10-04T07:19:18.166Z,0
2022-10-04T07:22:18.213Z,0
2022-10-04T07:25:18.187Z,0
2022-10-04T07:28:18.221Z,0
2022-10-04T07:31:18.241Z,0
2022-10-04T07:34:18.220Z,0
2022-10-04T07:37:18.238Z,0
2022-10-04T07:40:18.220Z,0
2022-10-04T07:43:18.219Z,0
2022-10-04T07:46:18.240Z,0
2022-10-04T07:49:18.289Z,0
2022-10-04T07:52:18.237Z,0
2022-10-04T07:55:18.238Z,0
2022-10-04T07:58:18.270Z,0
2022-10-04T08:01:18.255Z,0
2022-10-04T08:04:18.252Z,0
2022-10-04T08:07:18.359Z,1
2022-10-04T08:10:18.271Z,0
2022-10-04T08:13:18.311Z,0
2022-10-04T08:16:18.343Z,0
2022-10-04T08:19:18.315Z,0
2022-10-04T08:22:18.282Z,0
2022-10-04T08:25:18.295Z,0
2022-10-04T08:28:18.309Z,0
2022-10-04T08:31:18.340Z,0
2022-10-04T08:34:18.432Z,1
2022-10-04T08:37:18.426Z,0
2022-10-04T08:40:18.330Z,0
2022-10-04T08:43:18.354Z,0
2022-10-04T08:46:18.329Z,0
2022-10-04T08:49:18.381Z,0
2022-10-04T08:52:18.353Z,1
2022-10-04T08:55:18.350Z,0
2022-10-04T08:58:18.454Z,0
2022-10-04T09:01:18.398Z,0
2022-10-04T09:04:18.414Z,0
2022-10-04T09:07:18.364Z,0
2022-10-04T09:10:18.377Z,0
2022-10-04T09:13:18.386Z,0
2022-10-04T09:16:18.386Z,1
2022-10-04T09:19:18.388Z,0
2022-10-04T09:22:18.398Z,0
2022-10-04T09:25:18.423Z,1
2022-10-04T09:28:18.434Z,0
2022-10-04T09:31:18.456Z,0
2022-10-04T09:34:18.504Z,1
2022-10-04T09:37:18.435Z,1
2022-10-04T09:40:18.488Z,1
2022-10-04T09:43:18.510Z,1
2022-10-04T09:46:18.441Z,1
2022-10-04T09:49:18.462Z,2
2022-10-04T09:52:18.458Z,1
2022-10-04T09:55:18.600Z,0
2022-10-04T09:58:18.475Z,1
2022-10-04T10:01:18.468Z,3
2022-10-04T10:04:18.467Z,1
2022-10-04T10:07:18.512Z,0
2022-10-04T10:10:18.488Z,1
2022-10-04T10:13:18.539Z,0
2022-10-04T10:16:18.515Z,1
2022-10-04T10:19:18.554Z,2
2022-10-04T10:22:18.588Z,0
2022-10-04T10:25:18.520Z,0
2022-10-04T10:28:18.524Z,0
2022-10-04T10:31:18.519Z,0
2022-10-04T10:34:18.559Z,0
2022-10-04T10:37:18.533Z,1
2022-10-04T10:40:18.596Z,1
2022-10-04T10:43:18.557Z,0
2022-10-04T10:46:18.549Z,0
2022-10-04T10:49:18.562Z,1
2022-10-04T10:52:18.562Z,0
2022-10-04T10:55:18.578Z,0
2022-10-04T10:58:18.612Z,0
2022-10-04T11:01:18.563Z,0
2022-10-04T11:04:18.580Z,0
2022-10-04T11:07:18.642Z,1
2022-10-04T11:10:18.604Z,0
2022-10-04T11:13:18.613Z,0
2022-10-04T11:16:18.617Z,0
2022-10-04T11:19:18.645Z,0
2022-10-04T11:22:18.668Z,0
2022-10-04T11:25:18.620Z,0
2022-10-04T11:28:18.646Z,0
2022-10-04T11:31:18.631Z,1
2022-10-04T11:34:18.650Z,0
2022-10-04T11:37:18.676Z,0
2022-10-04T11:40:18.659Z,0
2022-10-04T11:43:18.679Z,0
2022-10-04T11:46:18.681Z,0
2022-10-04T11:49:18.739Z,0
2022-10-04T11:52:18.718Z,0
2022-10-04T11:55:18.740Z,0
2022-10-04T11:58:18.682Z,0
2022-10-04T12:01:18.689Z,0
2022-10-04T12:04:18.712Z,0
2022-10-04T12:07:18.710Z,0
2022-10-04T12:10:18.715Z,0
2022-10-04T12:13:18.734Z,0
2022-10-04T12:16:18.726Z,0
2022-10-04T12:19:18.738Z,0
2022-10-04T12:22:18.736Z,0
2022-10-04T12:25:18.757Z,0
2022-10-04T12:28:18.755Z,0
2022-10-04T12:31:18.759Z,0
2022-10-04T12:34:18.746Z,1
2022-10-04T12:37:18.778Z,0
2022-10-04T12:40:18.758Z,0
2022-10-04T12:43:18.771Z,1
2022-10-04T12:46:18.780Z,0
2022-10-04T12:49:18.779Z,0
2022-10-04T12:52:18.789Z,0
2022-10-04T12:55:18.785Z,0
2022-10-04T12:58:18.883Z,0
2022-10-04T13:01:18.802Z,1
2022-10-04T13:04:18.818Z,0
2022-10-04T13:07:18.885Z,0
2022-10-04T13:10:18.821Z,0
2022-10-04T13:13:18.846Z,1
2022-10-04T13:16:18.825Z,1
2022-10-04T13:19:18.820Z,0
2022-10-04T13:22:18.839Z,1
2022-10-04T13:25:18.840Z,0
2022-10-04T13:28:18.844Z,0
2022-10-04T13:31:18.853Z,2
2022-10-04T13:34:18.890Z,2
2022-10-04T13:37:18.867Z,0
2022-10-04T13:40:18.888Z,0
2022-10-04T13:43:18.896Z,0
2022-10-04T13:46:18.891Z,0
2022-10-04T13:49:18.878Z,0
2022-10-04T13:52:18.977Z,1
2022-10-04T13:55:18.887Z,0
2022-10-04T14:01:18.902Z,0
2022-10-04T14:04:18.929Z,0
2022-10-04T14:07:18.910Z,0
2022-10-04T14:10:18.931Z,2
2022-10-04T14:13:18.937Z,1
2022-10-04T14:16:18.957Z,3
2022-10-04T14:19:18.971Z,1
2022-10-04T14:22:18.933Z,1
2022-10-04T14:25:18.959Z,2
2022-10-04T14:28:18.969Z,2
2022-10-04T14:31:18.963Z,2
2022-10-04T14:34:18.978Z,1
2022-10-04T14:37:19.102Z,2
2022-10-04T14:40:18.990Z,4
2022-10-04T14:43:18.988Z,0
2022-10-04T14:46:18.998Z,3
2022-10-04T14:49:18.996Z,1
2022-10-04T14:52:18.995Z,2
2022-10-04T14:55:19.008Z,3
2022-10-04T14:58:19.018Z,1
2022-10-04T15:01:19.008Z,1
2022-10-04T15:04:19.021Z,2
2022-10-04T15:07:19.044Z,2
2022-10-04T15:10:19.035Z,1
2022-10-04T15:13:19.082Z,5
2022-10-04T15:16:19.045Z,2
2022-10-04T15:19:19.044Z,2
2022-10-04T15:22:19.046Z,2
2022-10-04T15:25:19.058Z,3
2022-10-04T15:28:19.065Z,1
2022-10-04T15:31:19.084Z,3
2022-10-04T15:34:19.069Z,3
2022-10-04T15:37:19.077Z,3
2022-10-04T15:40:19.081Z,3
2022-10-04T15:43:19.121Z,1
2022-10-04T15:46:19.089Z,3
2022-10-04T15:49:19.097Z,2
2022-10-04T15:52:19.099Z,2
2022-10-04T15:55:19.096Z,2
2022-10-04T15:58:19.170Z,2
2022-10-04T16:01:19.122Z,2
2022-10-04T16:04:19.154Z,1
2022-10-04T16:07:19.277Z,2
2022-10-04T16:10:19.152Z,2
2022-10-04T16:13:19.175Z,4
2022-10-04T16:16:19.154Z,3
2022-10-04T16:19:19.195Z,2
2022-10-04T16:22:19.175Z,3
2022-10-04T16:25:19.161Z,3
2022-10-04T16:28:19.179Z,2
2022-10-04T16:31:19.189Z,3
2022-10-04T16:34:19.173Z,2
2022-10-04T16:37:19.191Z,3
2022-10-04T16:40:19.236Z,4
2022-10-04T16:43:19.199Z,1
2022-10-04T16:46:19.223Z,3
2022-10-04T16:49:19.240Z,3
2022-10-04T16:52:19.224Z,2
2022-10-04T16:55:19.262Z,3
2022-10-04T16:58:19.213Z,2
2022-10-04T17:01:19.240Z,2
2022-10-04T17:04:19.233Z,6
2022-10-04T17:07:19.354Z,3
2022-10-04T17:10:19.258Z,2
2022-10-04T17:13:19.293Z,4
2022-10-04T17:16:19.271Z,3
2022-10-04T17:19:19.259Z,1
2022-10-04T17:22:19.274Z,1
2022-10-04T17:25:19.324Z,1
2022-10-04T17:28:19.282Z,3
2022-10-04T17:31:19.288Z,1
2022-10-04T17:34:19.353Z,1
2022-10-04T17:37:19.305Z,2
2022-10-04T17:40:19.357Z,3
2022-10-04T17:43:19.309Z,2
2022-10-04T17:46:19.330Z,1
2022-10-04T17:49:19.333Z,2
2022-10-04T17:52:19.336Z,3
2022-10-04T17:55:19.330Z,2
2022-10-04T17:58:19.354Z,1
2022-10-04T18:01:19.364Z,1
2022-10-04T18:04:19.366Z,4
2022-10-04T18:07:19.376Z,1
2022-10-04T18:10:19.362Z,2
2022-10-04T18:13:19.382Z,3
2022-10-04T18:16:19.408Z,2
2022-10-04T18:19:19.405Z,1
2022-10-04T18:22:19.401Z,3
2022-10-04T18:25:19.396Z,2
2022-10-04T18:28:19.402Z,4
2022-10-04T18:31:19.410Z,2
2022-10-04T18:34:19.419Z,2
2022-10-04T18:37:19.426Z,2
2022-10-04T18:40:19.431Z,3
2022-10-04T18:43:19.466Z,2
2022-10-04T18:46:19.438Z,1
2022-10-04T18:49:19.439Z,2
2022-10-04T18:52:19.449Z,2
2022-10-04T18:55:19.457Z,2
2022-10-04T18:58:19.458Z,3
2022-10-04T19:01:19.487Z,2
2022-10-04T19:04:19.469Z,3
2022-10-04T19:07:19.491Z,2
2022-10-04T19:10:19.512Z,2
2022-10-04T19:13:19.520Z,2
2022-10-04T19:16:19.501Z,4
2022-10-04T19:19:19.576Z,4
2022-10-04T19:22:19.517Z,3
2022-10-04T19:25:19.520Z,4
2022-10-04T19:28:19.528Z,4
2022-10-04T19:31:19.579Z,3
2022-10-04T19:34:19.577Z,2
2022-10-04T19:37:19.544Z,3
2022-10-04T19:40:19.547Z,3
2022-10-04T19:43:19.558Z,2
2022-10-04T19:46:19.560Z,5
2022-10-04T19:49:19.593Z,2
2022-10-04T19:52:19.586Z,4
2022-10-04T19:55:19.564Z,3
2022-10-04T19:58:19.582Z,3
2022-10-04T20:01:19.588Z,4
2022-10-04T20:04:19.587Z,2
2022-10-04T20:07:19.590Z,4
2022-10-04T20:10:19.612Z,3
2022-10-04T20:13:19.602Z,5
2022-10-04T20:16:19.679Z,3
2022-10-04T20:19:19.630Z,6
2022-10-04T20:22:19.654Z,5
2022-10-04T20:25:19.657Z,4
2022-10-04T20:28:19.645Z,6
2022-10-04T20:31:19.636Z,4
2022-10-04T20:34:19.648Z,3
2022-10-04T20:37:19.667Z,4
2022-10-04T20:40:19.663Z,2
2022-10-04T20:43:19.699Z,5
2022-10-04T20:46:19.807Z,4
2022-10-04T20:49:19.682Z,3
2022-10-04T20:52:19.684Z,2
2022-10-04T20:55:19.681Z,4
2022-10-04T20:58:19.694Z,3
2022-10-04T21:01:19.699Z,5
2022-10-04T21:04:19.714Z,5
2022-10-04T21:07:19.787Z,3
2022-10-04T21:10:19.753Z,1
2022-10-04T21:13:19.806Z,5
2022-10-04T21:16:19.731Z,5
2022-10-04T21:19:19.726Z,5
2022-10-04T21:22:19.747Z,4
2022-10-04T21:25:19.765Z,5
2022-10-04T21:28:19.746Z,3
2022-10-04T21:34:19.762Z,5
2022-10-04T21:37:19.769Z,5
2022-10-04T21:40:19.759Z,2
2022-10-04T21:43:19.849Z,4
2022-10-04T21:46:19.803Z,3
2022-10-04T21:49:19.794Z,3
2022-10-04T21:52:19.788Z,3
2022-10-04T21:55:19.936Z,4
2022-10-04T21:58:19.823Z,4
2022-10-04T22:01:19.817Z,4
2022-10-04T22:04:19.855Z,2
2022-10-04T22:07:19.917Z,4
2022-10-04T22:10:19.902Z,5
2022-10-04T22:13:19.845Z,6
2022-10-04T22:16:19.866Z,4
2022-10-04T22:19:19.844Z,2
2022-10-04T22:22:19.967Z,6
2022-10-04T22:25:19.855Z,6
2022-10-04T22:28:19.858Z,5
2022-10-04T22:31:19.861Z,2
2022-10-04T22:34:19.870Z,4
2022-10-04T22:37:19.887Z,6
2022-10-04T22:40:19.877Z,7
2022-10-04T22:43:19.904Z,3
2022-10-04T22:46:19.900Z,4
2022-10-04T22:49:19.885Z,6
2022-10-04T22:52:19.902Z,4
2022-10-04T22:55:19.948Z,7
2022-10-04T22:58:19.950Z,5
2022-10-04T23:01:19.927Z,6
2022-10-04T23:04:19.948Z,4
2022-10-04T23:07:19.936Z,5
2022-10-04T23:10:19.942Z,4
2022-10-04T23:13:19.954Z,5
2022-10-04T23:16:19.968Z,4
2022-10-04T23:19:19.949Z,3
2022-10-04T23:22:19.963Z,5
2022-10-04T23:25:19.975Z,7
2022-10-04T23:28:19.968Z,5
2022-10-04T23:31:19.979Z,4
2022-10-04T23:34:19.966Z,3
2022-10-04T23:37:19.991Z,6
2022-10-04T23:40:19.994Z,4
2022-10-04T23:43:20.002Z,5
2022-10-04T23:46:20.002Z,4
2022-10-04T23:49:19.997Z,4
2022-10-04T23:52:20.023Z,4
2022-10-04T23:55:20.042Z,4
2022-10-04T23:58:20.034Z,5
